Time;durP1;ratioP1;P1;durP2;ratioP2;P2;SDS_P1;SDS_P2;PMS_P1;PMS_P2;Temp;Humidity;BMP_temperature;BMP_pressure;BME280_temperature;BME280_humidity;BME280_pressure;Samples;Min_cycle;Max_cycle;Signal;HPM_P1;HPM_P2
2021/05/11 00:00:34;;;;;;;28.27;17.48;;;13.70;99.90;;;;;;5029520;28;20109;-73
2021/05/11 00:03:01;;;;;;;30.65;18.92;;;13.80;99.90;;;;;;5016029;28;20585;-74
2021/05/11 00:05:29;;;;;;;32.10;19.13;;;13.70;99.90;;;;;;5029558;28;20430;-73
2021/05/11 00:07:56;;;;;;;31.60;18.65;;;13.90;99.90;;;;;;5029394;28;20045;-74
2021/05/11 00:10:24;;;;;;;32.20;18.75;;;13.80;99.90;;;;;;5045275;28;20082;-74
2021/05/11 00:12:51;;;;;;;32.88;20.02;;;13.80;99.90;;;;;;5029787;28;20579;-75
2021/05/11 00:15:19;;;;;;;33.38;20.10;;;13.90;99.90;;;;;;5045195;28;20475;-74
2021/05/11 00:17:46;;;;;;;33.85;20.27;;;13.90;99.90;;;;;;5046810;28;20058;-74
2021/05/11 00:20:14;;;;;;;32.88;19.70;;;13.90;99.90;;;;;;5029750;28;20056;-74
2021/05/11 00:22:41;;;;;;;30.63;19.10;;;13.90;99.90;;;;;;5047062;28;20114;-74
2021/05/11 00:25:08;;;;;;;34.05;19.90;;;13.80;99.90;;;;;;5013006;28;20045;-74
2021/05/11 00:27:34;;;;;;;30.05;18.42;;;13.80;99.90;;;;;;5046194;28;20052;-74
2021/05/11 00:30:01;;;;;;;31.35;18.63;;;13.70;99.90;;;;;;5013618;28;20049;-74
2021/05/11 00:32:27;;;;;;;28.90;17.90;;;13.70;99.90;;;;;;5046507;28;20048;-74
2021/05/11 00:34:54;;;;;;;25.90;17.00;;;13.70;99.90;;;;;;5045832;28;20057;-74
2021/05/11 00:37:20;;;;;;;24.80;16.23;;;13.70;99.90;;;;;;5029085;28;20738;-74
2021/05/11 00:39:47;;;;;;;20.33;14.43;;;13.70;99.90;;;;;;5064909;28;20052;-74
2021/05/11 00:42:13;;;;;;;22.70;14.23;;;13.60;99.90;;;;;;5046015;28;20075;-74
2021/05/11 00:44:40;;;;;;;23.30;14.93;;;13.60;99.90;;;;;;5046570;28;20056;-74
2021/05/11 00:47:07;;;;;;;14.43;9.00;;;13.70;99.90;;;;;;5063705;28;20044;-73
2021/05/11 00:49:35;;;;;;;18.80;12.10;;;13.60;99.90;;;;;;5047165;28;20059;-75
2021/05/11 00:52:04;;;;;;;23.20;14.23;;;13.60;99.90;;;;;;5029821;28;20052;-74
2021/05/11 00:54:31;;;;;;;18.90;12.25;;;13.50;99.90;;;;;;5030474;28;20259;-73
2021/05/11 00:56:58;;;;;;;14.52;10.05;;;13.60;99.90;;;;;;5012167;28;20076;-73
2021/05/11 00:59:29;;;;;;;21.05;12.65;;;13.50;99.90;;;;;;5016657;28;20114;-74
2021/05/11 01:01:57;;;;;;;14.85;11.27;;;13.50;99.90;;;;;;5049514;28;20055;-73
2021/05/11 01:04:25;;;;;;;16.20;11.00;;;13.60;99.90;;;;;;5033098;28;20505;-74
2021/05/11 01:06:53;;;;;;;16.38;11.30;;;13.60;99.90;;;;;;5043185;28;20056;-74
2021/05/11 01:09:22;;;;;;;16.17;11.02;;;13.60;99.90;;;;;;5045736;28;20064;-75
2021/05/11 01:11:49;;;;;;;18.17;11.57;;;13.70;99.90;;;;;;5031577;28;20063;-75
2021/05/11 01:14:16;;;;;;;16.67;11.60;;;13.60;99.90;;;;;;5049540;28;20048;-74
2021/05/11 01:16:44;;;;;;;19.08;12.13;;;13.50;99.90;;;;;;5032379;28;20090;-74
2021/05/11 01:19:27;;;;;;;18.13;12.18;;;13.50;99.90;;;;;;5049586;28;20051;-73
2021/05/11 01:25:08;;;;;;;20.75;13.02;;;13.50;99.90;;;;;;5050175;28;20036;-74
2021/05/11 01:30:40;;;;;;;22.65;14.23;;;13.60;99.90;;;;;;5048763;28;20130;-73
2021/05/11 01:47:06;;;;;;;24.63;14.07;;;13.50;99.90;;;;;;5021728;28;20109;-74
2021/05/11 01:57:59;;;;;;;29.05;15.63;;;13.40;99.90;;;;;;5066456;28;20090;-74
2021/05/11 02:17:57;;;;;;;38.83;19.55;;;13.30;99.90;;;;;;5045770;28;20098;-75
2021/05/11 02:22:46;;;;;;;38.50;19.80;;;13.40;99.90;;;;;;5046900;28;20049;-74
2021/05/11 02:25:14;;;;;;;38.75;19.20;;;13.40;99.90;;;;;;5047752;28;20052;-74
2021/05/11 02:27:42;;;;;;;42.92;20.27;;;13.40;99.90;;;;;;5028262;28;20076;-74
2021/05/11 02:30:09;;;;;;;42.70;21.42;;;13.30;99.90;;;;;;5028493;28;20205;-73
2021/05/11 02:32:37;;;;;;;52.85;22.65;;;13.40;99.90;;;;;;5038301;28;20083;-75
2021/05/11 02:35:04;;;;;;;42.60;21.20;;;13.50;99.90;;;;;;5031535;28;20135;-74
2021/05/11 02:37:31;;;;;;;44.78;20.58;;;13.50;99.90;;;;;;5030830;28;20032;-74
2021/05/11 02:39:58;;;;;;;39.47;19.45;;;13.50;99.90;;;;;;5032350;28;20056;-74
2021/05/11 02:42:24;;;;;;;41.63;19.73;;;13.50;99.90;;;;;;5047356;28;20438;-73
2021/05/11 02:44:52;;;;;;;38.70;18.75;;;13.50;99.90;;;;;;5031793;28;20385;-74
2021/05/11 02:47:18;;;;;;;38.42;20.23;;;13.50;99.90;;;;;;5048020;28;20072;-73
2021/05/11 02:49:47;;;;;;;42.30;20.17;;;13.40;99.90;;;;;;5031493;28;20174;-74
2021/05/11 02:52:13;;;;;;;35.40;18.05;;;13.40;99.90;;;;;;5029870;28;20106;-74
2021/05/11 02:54:40;;;;;;;51.88;22.42;;;13.30;99.90;;;;;;5031533;28;20076;-74
2021/05/11 02:57:08;;;;;;;37.30;19.05;;;13.40;99.90;;;;;;5047268;28;20676;-74
2021/05/11 02:59:39;;;;;;;46.17;20.42;;;13.40;99.90;;;;;;5047868;28;20485;-74
2021/05/11 03:02:07;;;;;;;50.53;21.70;;;13.30;99.90;;;;;;5046141;28;20135;-73
2021/05/11 03:04:34;;;;;;;33.10;18.15;;;13.30;99.90;;;;;;5021802;28;20048;-73
2021/05/11 03:07:01;;;;;;;32.17;17.52;;;13.30;99.90;;;;;;5046965;28;20075;-73
2021/05/11 03:09:28;;;;;;;32.33;17.95;;;13.30;99.90;;;;;;5015401;28;20405;-74
2021/05/11 03:11:55;;;;;;;32.78;18.27;;;13.30;99.90;;;;;;5012509;28;20052;-74
2021/05/11 03:14:22;;;;;;;42.95;21.08;;;13.40;99.90;;;;;;5029494;28;20063;-74
2021/05/11 03:16:51;;;;;;;45.50;20.45;;;13.50;99.90;;;;;;5028947;28;20059;-74
2021/05/11 03:19:19;;;;;;;38.58;19.55;;;13.50;99.90;;;;;;5030619;28;20045;-74
2021/05/11 03:21:46;;;;;;;46.08;21.92;;;13.40;99.90;;;;;;5029039;28;20138;-74
2021/05/11 03:24:15;;;;;;;45.83;21.30;;;13.40;99.90;;;;;;5030977;28;20075;-73
2021/05/11 03:26:42;;;;;;;47.10;20.42;;;13.30;99.90;;;;;;5064192;28;20494;-73
2021/05/11 03:29:09;;;;;;;51.47;20.80;;;13.30;99.90;;;;;;5046450;28;20064;-73
2021/05/11 03:31:35;;;;;;;49.70;21.55;;;13.30;99.90;;;;;;5045969;28;20042;-73
2021/05/11 03:34:02;;;;;;;39.88;20.63;;;13.20;99.90;;;;;;5064181;28;20697;-73
2021/05/11 03:36:29;;;;;;;47.28;22.20;;;13.20;99.90;;;;;;5010604;28;20514;-74
2021/05/11 03:38:59;;;;;;;54.67;21.52;;;13.20;99.90;;;;;;5033397;28;20102;-74
2021/05/11 03:41:29;;;;;;;42.92;19.52;;;13.20;99.90;;;;;;5025166;28;20053;-73
2021/05/11 03:44:03;;;;;;;43.25;20.50;;;13.20;99.90;;;;;;5029907;28;20193;-75
2021/05/11 03:46:29;;;;;;;41.90;19.95;;;13.10;99.90;;;;;;5028773;28;20048;-74
2021/05/11 03:48:56;;;;;;;42.65;20.42;;;13.00;99.90;;;;;;5024514;28;20073;-74
2021/05/11 03:51:23;;;;;;;44.53;20.50;;;13.00;99.90;;;;;;5029584;28;20052;-74
2021/05/11 03:53:50;;;;;;;33.15;17.67;;;13.00;99.90;;;;;;5030062;28;20048;-74
2021/05/11 03:56:18;;;;;;;33.40;18.77;;;12.90;99.90;;;;;;5045039;28;20140;-73
2021/05/11 03:58:45;;;;;;;32.25;18.13;;;13.00;99.90;;;;;;5045814;28;20129;-74
2021/05/11 04:01:12;;;;;;;33.78;17.80;;;13.20;99.90;;;;;;5029364;28;20453;-74
2021/05/11 04:03:39;;;;;;;29.63;16.55;;;13.30;99.90;;;;;;5063948;28;20040;-74
2021/05/11 04:06:06;;;;;;;40.80;19.17;;;13.20;99.90;;;;;;5028708;28;20048;-74
2021/05/11 04:08:47;;;;;;;35.80;17.48;;;13.30;99.90;;;;;;5046416;28;20123;-74
2021/05/11 04:16:30;;;;;;;30.45;17.17;;;13.20;99.90;;;;;;5062749;28;20032;-74
2021/05/11 04:18:57;;;;;;;32.88;17.20;;;13.10;99.90;;;;;;5043657;28;20049;-74
2021/05/11 04:21:24;;;;;;;30.92;16.85;;;13.10;99.90;;;;;;5045174;28;20064;-74
2021/05/11 04:23:53;;;;;;;27.83;16.63;;;13.10;99.90;;;;;;5046549;28;20056;-74
2021/05/11 04:26:21;;;;;;;30.25;17.73;;;12.90;99.90;;;;;;5045717;28;20056;-74
2021/05/11 04:28:50;;;;;;;36.40;17.38;;;12.90;99.90;;;;;;5046359;28;20333;-74
2021/05/11 04:31:20;;;;;;;31.02;16.48;;;12.90;99.90;;;;;;5063845;28;20052;-74
2021/05/11 04:33:47;;;;;;;28.23;15.73;;;13.00;99.90;;;;;;5027547;28;20287;-73
2021/05/11 04:36:15;;;;;;;19.70;12.93;;;12.90;99.90;;;;;;5048812;28;20053;-75
2021/05/11 04:38:42;;;;;;;22.13;13.60;;;12.90;99.90;;;;;;5033690;28;20074;-73
2021/05/11 04:41:09;;;;;;;22.77;12.43;;;13.00;99.90;;;;;;5033031;28;20048;-74
2021/05/11 04:43:39;;;;;;;20.10;11.95;;;13.00;99.90;;;;;;5068110;28;20052;-74
2021/05/11 04:48:46;;;;;;;24.25;12.95;;;12.80;99.90;;;;;;5049355;28;20082;-73
2021/05/11 04:51:14;;;;;;;17.55;11.55;;;13.00;99.90;;;;;;5049553;28;20048;-74
2021/05/11 04:53:41;;;;;;;22.83;12.73;;;12.90;99.90;;;;;;5034026;28;20048;-74
2021/05/11 04:56:07;;;;;;;19.30;12.38;;;12.80;99.90;;;;;;5049782;28;20045;-74
2021/05/11 04:58:35;;;;;;;24.55;12.82;;;12.90;99.90;;;;;;5049891;28;20098;-74
2021/05/11 05:01:03;;;;;;;20.92;12.82;;;13.00;99.90;;;;;;5049251;28;20079;-75
2021/05/11 05:03:33;;;;;;;20.65;12.77;;;13.10;99.90;;;;;;5032799;28;20041;-74
2021/05/11 05:06:01;;;;;;;22.42;13.90;;;13.20;99.90;;;;;;5049716;28;20072;-74
2021/05/11 05:08:28;;;;;;;23.90;13.70;;;13.20;99.90;;;;;;5033379;28;20045;-74
2021/05/11 05:10:55;;;;;;;22.60;13.60;;;13.20;99.90;;;;;;5032695;28;20067;-74
2021/05/11 05:13:25;;;;;;;21.80;13.90;;;13.40;99.90;;;;;;5018699;28;20048;-74
2021/05/11 05:15:56;;;;;;;25.38;15.38;;;13.30;99.90;;;;;;5051641;28;20076;-73
2021/05/11 05:18:26;;;;;;;20.13;12.60;;;13.30;99.90;;;;;;5064739;28;20045;-74
2021/05/11 05:20:53;;;;;;;20.75;13.05;;;13.40;99.90;;;;;;5047165;28;20040;-75
2021/05/11 05:23:27;;;;;;;19.77;13.13;;;13.40;99.90;;;;;;5029338;28;20049;-73
2021/05/11 05:26:05;;;;;;;23.55;13.85;;;13.40;99.90;;;;;;5031183;28;20114;-73
2021/05/11 05:28:39;;;;;;;25.02;14.52;;;13.50;99.90;;;;;;5016722;28;20045;-74
2021/05/11 05:31:06;;;;;;;22.30;12.48;;;13.60;99.90;;;;;;5032455;28;20063;-74
2021/05/11 05:33:39;;;;;;;20.70;13.07;;;13.50;99.90;;;;;;5046605;28;20059;-74
2021/05/11 05:36:07;;;;;;;18.60;11.20;;;13.30;99.90;;;;;;5012020;28;20114;-74
2021/05/11 05:38:37;;;;;;;19.02;11.65;;;13.20;99.90;;;;;;5030864;28;20083;-73
2021/05/11 05:41:08;;;;;;;16.42;11.23;;;13.10;99.90;;;;;;5048562;28;20151;-74
2021/05/11 05:43:35;;;;;;;15.02;9.73;;;13.20;99.90;;;;;;5067151;28;20115;-74
2021/05/11 05:46:02;;;;;;;18.83;11.73;;;13.20;99.90;;;;;;5030130;28;20053;-75
2021/05/11 05:48:29;;;;;;;16.05;10.50;;;13.20;99.90;;;;;;5049076;28;20044;-74
2021/05/11 05:51:01;;;;;;;16.60;9.82;;;13.30;99.90;;;;;;5048078;28;20136;-74
2021/05/11 05:53:40;;;;;;;14.77;10.60;;;13.40;99.90;;;;;;5031513;28;20088;-74
2021/05/11 05:56:08;;;;;;;10.57;8.23;;;13.40;99.90;;;;;;5031651;28;20416;-74
2021/05/11 05:58:36;;;;;;;11.63;9.55;;;13.30;99.90;;;;;;5066998;28;20128;-74
2021/05/11 06:01:09;;;;;;;10.48;8.23;;;13.30;99.90;;;;;;5048427;28;20053;-74
2021/05/11 06:03:55;;;;;;;11.70;8.18;;;13.30;99.90;;;;;;5047405;28;20044;-73
2021/05/11 06:06:22;;;;;;;11.38;8.57;;;13.50;99.90;;;;;;5030241;28;20063;-74
2021/05/11 06:08:49;;;;;;;10.07;8.35;;;13.70;99.90;;;;;;5049579;28;20103;-75
2021/05/11 06:11:40;;;;;;;9.18;7.05;;;13.80;99.90;;;;;;5029696;28;20052;-75
2021/05/11 06:14:23;;;;;;;10.88;7.00;;;14.00;99.90;;;;;;5049006;28;20083;-74
2021/05/11 06:19:37;;;;;;;7.68;6.50;;;14.10;99.90;;;;;;5065993;28;20145;-74
2021/05/11 06:22:04;;;;;;;7.03;6.30;;;14.10;99.90;;;;;;5046915;28;20551;-74
2021/05/11 06:24:31;;;;;;;6.65;4.95;;;14.00;99.90;;;;;;5047327;28;20102;-74
2021/05/11 06:26:58;;;;;;;7.60;4.30;;;14.10;99.90;;;;;;5013210;28;20052;-74
2021/05/11 06:29:28;;;;;;;4.72;3.47;;;14.10;99.90;;;;;;5031298;28;20048;-74
2021/05/11 06:31:55;;;;;;;4.65;4.25;;;14.00;99.90;;;;;;5045545;28;20114;-74
2021/05/11 06:34:22;;;;;;;9.15;4.75;;;14.00;99.90;;;;;;5047331;28;20123;-74
2021/05/11 06:36:49;;;;;;;6.55;5.75;;;14.10;99.90;;;;;;5046892;28;20261;-75
2021/05/11 06:39:18;;;;;;;7.25;5.70;;;14.20;99.90;;;;;;5048147;28;20441;-74
2021/05/11 06:41:49;;;;;;;6.43;5.50;;;14.20;99.90;;;;;;5013839;28;20188;-75
2021/05/11 06:54:53;;;;;;;8.68;7.28;;;14.20;99.90;;;;;;5033189;28;20052;-76
2021/05/11 06:57:20;;;;;;;8.23;7.00;;;14.20;99.90;;;;;;5032400;28;20041;-75
2021/05/11 06:59:47;;;;;;;9.93;7.60;;;14.30;99.90;;;;;;5048857;28;20070;-74
2021/05/11 07:02:14;;;;;;;9.73;7.95;;;14.40;99.90;;;;;;5062366;28;20040;-75
2021/05/11 07:04:43;;;;;;;10.60;8.00;;;14.40;99.90;;;;;;5043030;28;20192;-74
2021/05/11 07:07:13;;;;;;;10.95;8.07;;;14.50;99.90;;;;;;5019765;28;20048;-74
2021/05/11 07:15:04;;;;;;;14.45;10.43;;;14.50;99.90;;;;;;5068154;28;20287;-75
2021/05/11 07:17:31;;;;;;;15.15;11.13;;;14.40;99.90;;;;;;5054204;28;20035;-73
2021/05/11 07:19:58;;;;;;;18.80;13.65;;;14.30;99.90;;;;;;5054708;28;20057;-74
2021/05/11 07:22:25;;;;;;;22.05;15.90;;;14.30;99.90;;;;;;5086854;28;20402;-74
2021/05/11 07:24:55;;;;;;;21.63;15.48;;;14.30;99.90;;;;;;5036290;28;20063;-76
2021/05/11 07:29:58;;;;;;;28.08;18.08;;;14.20;99.90;;;;;;5033767;28;20051;-75
2021/05/11 07:32:25;;;;;;;29.52;17.92;;;14.30;99.90;;;;;;5053509;28;20045;-75
2021/05/11 07:34:55;;;;;;;23.88;17.02;;;14.40;99.90;;;;;;5034432;28;20045;-74
2021/05/11 07:37:22;;;;;;;24.58;17.60;;;14.50;99.90;;;;;;5051230;28;20044;-75
2021/05/11 07:39:49;;;;;;;26.00;17.65;;;14.50;99.90;;;;;;5030936;28;20486;-74
2021/05/11 07:42:16;;;;;;;32.30;20.15;;;14.50;99.90;;;;;;5049271;28;20067;-75
2021/05/11 07:44:47;;;;;;;34.58;22.58;;;14.50;99.90;;;;;;5035524;28;20110;-75
2021/05/11 07:47:20;;;;;;;37.38;24.40;;;14.50;99.90;;;;;;5063709;28;20103;-75
2021/05/11 08:14:31;;;;;;;88.78;34.97;;;14.20;99.90;;;;;;5070942;28;20255;-73
2021/05/11 08:17:00;;;;;;;58.33;30.60;;;14.30;99.90;;;;;;5066720;28;20044;-74
2021/05/11 08:30:19;;;;;;;27.00;20.25;;;15.30;99.90;;;;;;5031944;28;20588;-76
2021/05/11 08:32:46;;;;;;;25.10;19.10;;;15.50;99.90;;;;;;5048658;28;20106;-77
2021/05/11 08:35:13;;;;;;;21.80;18.33;;;15.60;99.90;;;;;;5048043;28;20280;-80
2021/05/11 08:37:40;;;;;;;24.70;17.45;;;15.60;99.90;;;;;;5031773;28;20078;-80
2021/05/11 08:40:08;;;;;;;24.67;19.63;;;15.70;99.90;;;;;;5031616;28;20052;-79
2021/05/11 08:42:35;;;;;;;25.10;19.40;;;15.60;99.90;;;;;;5047045;28;20045;-74
2021/05/11 08:45:05;;;;;;;24.25;20.02;;;15.50;99.90;;;;;;5029073;28;20148;-73
2021/05/11 08:47:35;;;;;;;25.52;19.88;;;15.30;99.90;;;;;;5045879;28;20071;-73
2021/05/11 08:50:03;;;;;;;23.30;18.42;;;15.00;99.90;;;;;;5030589;28;20517;-74
2021/05/11 08:52:48;;;;;;;28.95;19.67;;;15.00;99.90;;;;;;5029587;28;20052;-74
2021/05/11 09:06:38;;;;;;;23.60;17.85;;;15.80;99.90;;;;;;5048162;28;20071;-73
2021/05/11 09:09:58;;;;;;;23.38;19.50;;;15.70;99.90;;;;;;5029353;28;20048;-74
2021/05/11 09:23:34;;;;;;;21.10;18.67;;;15.10;99.90;;;;;;5050647;28;20542;-74
2021/05/11 09:26:12;;;;;;;22.73;17.90;;;15.10;99.90;;;;;;5039179;28;20497;-75
2021/05/11 09:28:46;;;;;;;20.88;17.92;;;15.10;99.90;;;;;;5033759;28;20053;-75
2021/05/11 09:31:28;;;;;;;23.13;18.58;;;15.20;99.90;;;;;;5031934;28;20682;-76
2021/05/11 09:34:17;;;;;;;23.45;18.10;;;15.20;99.90;;;;;;5031987;28;20151;-74
2021/05/11 09:51:26;;;;;;;21.13;18.85;;;15.30;99.90;;;;;;5029732;28;20044;-74
2021/05/11 10:48:23;;;;;;;19.38;16.55;;;15.70;99.90;;;;;;5025544;28;20052;-75
2021/05/11 10:50:52;;;;;;;17.60;15.80;;;15.80;99.90;;;;;;5021220;28;20165;-74
2021/05/11 10:53:38;;;;;;;18.48;16.67;;;15.70;99.90;;;;;;5030578;28;20045;-74
2021/05/11 10:56:41;;;;;;;17.08;15.40;;;15.60;99.90;;;;;;5014362;28;20053;-72
2021/05/11 11:01:45;;;;;;;18.02;16.20;;;14.90;99.90;;;;;;5030174;28;20036;-74
2021/05/11 11:04:20;;;;;;;16.67;14.85;;;14.80;99.90;;;;;;5029400;28;20137;-74
2021/05/11 11:07:07;;;;;;;17.50;14.98;;;15.00;99.90;;;;;;5030718;28;20044;-73
2021/05/11 11:09:36;;;;;;;17.70;15.70;;;15.10;99.90;;;;;;5047508;28;20048;-73
2021/05/11 11:12:06;;;;;;;16.00;14.30;;;15.20;99.90;;;;;;5045570;28;20084;-73
2021/05/11 11:14:40;;;;;;;15.35;13.88;;;15.30;99.90;;;;;;5065590;28;20255;-73
2021/05/11 11:17:14;;;;;;;18.50;15.10;;;15.30;99.90;;;;;;5046298;28;20377;-72
2021/05/11 11:19:48;;;;;;;18.83;16.80;;;15.20;99.90;;;;;;5030566;28;20158;-73
2021/05/11 11:25:02;;;;;;;17.30;14.80;;;15.50;99.90;;;;;;5027361;28;20513;-74
2021/05/11 11:27:32;;;;;;;21.13;17.52;;;15.60;99.90;;;;;;5045476;28;20049;-73
2021/05/11 11:30:10;;;;;;;22.10;17.60;;;15.40;99.90;;;;;;5060530;28;20087;-74
2021/05/11 11:32:38;;;;;;;19.67;16.58;;;15.50;99.90;;;;;;5030188;28;20131;-73
2021/05/11 11:35:08;;;;;;;20.25;16.88;;;15.50;99.90;;;;;;5029825;28;20057;-74
2021/05/11 11:37:35;;;;;;;18.45;15.85;;;15.40;99.90;;;;;;5061840;28;20157;-75
2021/05/11 11:40:08;;;;;;;18.73;16.33;;;15.40;99.90;;;;;;5036069;28;20040;-75
2021/05/11 11:42:41;;;;;;;17.33;14.70;;;15.30;99.90;;;;;;5029415;28;20529;-75
2021/05/11 11:45:21;;;;;;;17.48;15.32;;;15.30;99.90;;;;;;5027420;28;20076;-76
2021/05/11 11:48:00;;;;;;;17.02;14.73;;;15.30;99.90;;;;;;5029991;28;20045;-75
2021/05/11 11:50:34;;;;;;;17.98;16.25;;;15.50;99.90;;;;;;5012873;28;20047;-75
2021/05/11 11:53:12;;;;;;;17.88;15.98;;;15.40;99.90;;;;;;5046811;28;20048;-75
2021/05/11 11:56:11;;;;;;;17.40;15.77;;;15.40;99.90;;;;;;5046064;28;20076;-75
2021/05/11 11:58:39;;;;;;;16.33;14.73;;;15.40;99.90;;;;;;5013218;28;20048;-75
2021/05/11 12:01:16;;;;;;;18.30;15.85;;;15.30;99.90;;;;;;5045860;28;20071;-75
2021/05/11 12:03:44;;;;;;;16.55;14.93;;;15.30;99.90;;;;;;5044798;28;20040;-76
2021/05/11 12:06:17;;;;;;;19.13;15.50;;;15.40;99.90;;;;;;5028318;28;20036;-75
2021/05/11 12:08:43;;;;;;;17.23;15.43;;;15.50;99.90;;;;;;5064302;28;20048;-75
2021/05/11 12:11:10;;;;;;;22.75;16.33;;;15.50;99.90;;;;;;5044470;28;20128;-72
2021/05/11 12:13:39;;;;;;;18.40;16.50;;;15.50;99.90;;;;;;5029668;28;20256;-71
2021/05/11 12:16:11;;;;;;;19.65;17.20;;;15.40;99.90;;;;;;5045359;28;20138;-72
2021/05/11 12:18:43;;;;;;;20.73;17.10;;;15.30;99.90;;;;;;5013513;28;20045;-72
2021/05/11 12:21:12;;;;;;;21.02;18.48;;;15.30;99.90;;;;;;5029240;28;20481;-72
2021/05/11 12:23:40;;;;;;;20.13;18.13;;;15.20;99.90;;;;;;5045833;28;20087;-72
2021/05/11 12:26:07;;;;;;;21.30;19.00;;;15.20;99.90;;;;;;5029017;28;20156;-72
2021/05/11 12:28:40;;;;;;;22.75;18.60;;;15.00;99.90;;;;;;5046523;28;20520;-71
2021/05/11 12:31:09;;;;;;;21.88;19.42;;;14.90;99.90;;;;;;5040618;28;20049;-71
2021/05/11 12:33:41;;;;;;;21.38;19.10;;;14.90;99.90;;;;;;5030883;28;20128;-72
2021/05/11 12:36:28;;;;;;;20.80;17.27;;;14.80;99.90;;;;;;5064724;28;20049;-72
2021/05/11 12:39:26;;;;;;;24.60;20.38;;;14.70;99.90;;;;;;5065083;28;20208;-72
2021/05/11 12:42:16;;;;;;;24.50;19.50;;;14.80;99.90;;;;;;5046812;28;20475;-72
2021/05/11 12:44:44;;;;;;;29.27;20.77;;;14.90;99.90;;;;;;5047002;28;20075;-72
2021/05/11 12:47:14;;;;;;;22.60;20.23;;;14.80;99.90;;;;;;5028990;28;20438;-71
2021/05/11 12:49:42;;;;;;;24.58;21.90;;;14.80;99.90;;;;;;5029461;28;20519;-72
2021/05/11 12:52:10;;;;;;;23.17;19.50;;;14.70;99.90;;;;;;5060679;28;20049;-72
2021/05/11 12:54:47;;;;;;;25.30;20.40;;;14.70;99.90;;;;;;5041877;28;20178;-71
2021/05/11 12:57:43;;;;;;;33.08;24.30;;;14.80;99.90;;;;;;5028635;28;20495;-72
2021/05/11 13:00:16;;;;;;;24.40;21.40;;;14.90;99.90;;;;;;5027462;28;20048;-72
2021/05/11 13:28:06;;;;;;;17.45;15.38;;;14.90;99.90;;;;;;5031323;28;20087;-72
2021/05/11 13:33:47;;;;;;;19.67;17.17;;;14.60;99.90;;;;;;5048635;28;20037;-73
2021/05/11 13:36:14;;;;;;;18.42;16.05;;;14.80;99.90;;;;;;5045947;28;20437;-72
2021/05/11 13:38:41;;;;;;;19.05;16.20;;;15.00;99.90;;;;;;5028747;28;20596;-73
2021/05/11 13:41:08;;;;;;;17.90;16.00;;;14.80;99.90;;;;;;5028674;28;20060;-73
2021/05/11 13:43:36;;;;;;;20.48;16.63;;;14.90;99.90;;;;;;5015796;28;20095;-73
2021/05/11 13:46:03;;;;;;;17.60;14.40;;;15.00;99.90;;;;;;5047749;28;20087;-73
2021/05/11 13:48:35;;;;;;;17.38;14.48;;;15.00;99.90;;;;;;5048057;28;20043;-72
2021/05/11 13:51:10;;;;;;;16.77;14.90;;;15.10;99.90;;;;;;5047656;28;20056;-73
2021/05/11 13:53:38;;;;;;;17.73;16.02;;;14.80;99.90;;;;;;5048766;28;20041;-72
2021/05/11 14:04:27;;;;;;;20.67;18.30;;;15.00;99.90;;;;;;5064917;28;20063;-72
2021/05/11 14:06:54;;;;;;;19.42;17.23;;;15.00;99.90;;;;;;5064780;28;20465;-72
2021/05/11 14:09:23;;;;;;;19.73;17.65;;;15.10;99.90;;;;;;5045088;28;20052;-72
2021/05/11 14:11:50;;;;;;;21.58;19.33;;;15.40;99.90;;;;;;5044483;28;20055;-72
2021/05/11 14:14:20;;;;;;;21.13;18.58;;;15.50;99.90;;;;;;5065289;28;20054;-72
2021/05/11 14:16:47;;;;;;;37.22;27.50;;;15.50;99.90;;;;;;5012942;28;20106;-72
2021/05/11 14:19:18;;;;;;;24.63;21.55;;;15.60;99.90;;;;;;4994389;28;20127;-72
2021/05/11 14:21:46;;;;;;;26.38;23.52;;;15.70;99.90;;;;;;5029947;28;20045;-72
2021/05/11 14:24:14;;;;;;;27.05;21.50;;;15.70;99.90;;;;;;5030434;28;20051;-73
2021/05/11 14:26:42;;;;;;;22.63;19.73;;;15.70;99.90;;;;;;5029937;28;20070;-72
2021/05/11 14:29:09;;;;;;;23.63;21.00;;;15.60;99.90;;;;;;5047095;28;20108;-72
2021/05/11 14:31:36;;;;;;;28.25;22.75;;;15.50;99.90;;;;;;5063783;28;20048;-72
2021/05/11 14:34:05;;;;;;;28.95;24.95;;;15.40;99.90;;;;;;5046314;28;20528;-72
2021/05/11 14:36:32;;;;;;;31.77;27.77;;;15.60;99.90;;;;;;5029526;28;20086;-72
2021/05/11 14:38:59;;;;;;;32.90;27.30;;;15.60;99.90;;;;;;5064411;28;20549;-72
2021/05/11 14:41:26;;;;;;;25.85;22.33;;;15.70;99.90;;;;;;5029023;28;20052;-72
2021/05/11 14:43:53;;;;;;;27.85;24.73;;;15.70;99.90;;;;;;5028110;28;20079;-72
2021/05/11 14:46:21;;;;;;;26.02;22.88;;;15.60;99.90;;;;;;5028782;28;20232;-72
2021/05/11 14:48:48;;;;;;;33.33;27.20;;;15.60;99.90;;;;;;5029933;28;20234;-73
2021/05/11 14:51:15;;;;;;;27.27;22.83;;;15.60;99.90;;;;;;5029336;28;20040;-73
2021/05/11 14:53:42;;;;;;;22.75;20.25;;;15.60;99.90;;;;;;5046600;28;20114;-73
2021/05/11 14:56:11;;;;;;;24.10;20.85;;;15.60;99.90;;;;;;5046304;28;20102;-72
2021/05/11 14:58:39;;;;;;;29.23;23.52;;;15.50;99.90;;;;;;5030200;28;20693;-73
2021/05/11 15:01:08;;;;;;;29.73;25.17;;;15.40;99.90;;;;;;5044778;28;20397;-72
2021/05/11 15:03:35;;;;;;;33.65;26.67;;;15.20;99.90;;;;;;5045408;28;20113;-72
2021/05/11 15:06:21;;;;;;;33.75;26.23;;;15.10;99.90;;;;;;5049846;28;20059;-72
2021/05/11 15:08:48;;;;;;;43.80;31.60;;;15.10;99.90;;;;;;5028603;28;20048;-72
2021/05/11 15:11:16;;;;;;;34.03;27.13;;;15.00;99.90;;;;;;5039493;28;20051;-73
2021/05/11 15:13:44;;;;;;;37.65;28.77;;;15.00;99.90;;;;;;5028096;28;20056;-73
2021/05/11 15:16:13;;;;;;;35.53;28.23;;;14.90;99.90;;;;;;5024251;28;20055;-73
2021/05/11 15:18:40;;;;;;;31.73;26.73;;;14.90;99.90;;;;;;5025365;28;20121;-73
2021/05/11 15:21:08;;;;;;;33.13;25.52;;;14.80;99.90;;;;;;5029071;28;20109;-73
2021/05/11 15:23:35;;;;;;;32.08;26.95;;;14.90;99.90;;;;;;5028709;28;20290;-73
2021/05/11 15:26:02;;;;;;;34.80;26.45;;;14.90;99.90;;;;;;5045392;28;20057;-73
2021/05/11 15:28:29;;;;;;;34.67;28.83;;;14.90;99.90;;;;;;5045974;28;20064;-73
2021/05/11 15:30:57;;;;;;;31.08;26.05;;;14.80;99.90;;;;;;5028693;28;20066;-73
2021/05/11 15:33:25;;;;;;;34.05;27.42;;;14.80;99.90;;;;;;5019856;28;20397;-72
2021/05/11 15:35:53;;;;;;;35.22;28.63;;;14.90;99.90;;;;;;5045195;28;20052;-72
2021/05/11 15:38:21;;;;;;;39.53;29.63;;;14.80;99.90;;;;;;5029817;28;20533;-72
2021/05/11 15:40:48;;;;;;;43.97;33.55;;;14.80;99.90;;;;;;5063397;28;20067;-72
2021/05/11 15:43:16;;;;;;;40.78;32.85;;;14.70;99.90;;;;;;5028578;28;20079;-72
2021/05/11 15:45:45;;;;;;;42.60;33.00;;;14.70;99.90;;;;;;5044284;28;20044;-73
2021/05/11 15:48:12;;;;;;;51.38;34.88;;;14.70;99.90;;;;;;5045734;28;20052;-73
2021/05/11 15:50:43;;;;;;;49.67;34.80;;;14.70;99.90;;;;;;5011926;28;20071;-73
2021/05/11 15:53:12;;;;;;;47.63;35.75;;;14.70;99.90;;;;;;5023197;28;20052;-73
2021/05/11 15:55:41;;;;;;;51.30;36.75;;;14.80;99.90;;;;;;5039144;28;20049;-75
2021/05/11 15:58:09;;;;;;;46.35;35.95;;;14.80;99.90;;;;;;5016585;28;20213;-76
2021/05/11 16:00:39;;;;;;;43.55;33.08;;;14.70;99.90;;;;;;5025967;28;20059;-76
2021/05/11 16:03:06;;;;;;;44.53;33.10;;;14.80;99.90;;;;;;5007933;28;20084;-76
2021/05/11 16:05:38;;;;;;;32.13;26.05;;;14.80;99.90;;;;;;5061508;28;20056;-75
2021/05/11 16:08:18;;;;;;;35.35;27.05;;;14.70;99.90;;;;;;5027286;28;20056;-77
2021/05/11 16:10:46;;;;;;;35.63;28.73;;;14.60;99.90;;;;;;4996268;28;20209;-76
2021/05/11 16:13:15;;;;;;;36.17;28.65;;;14.70;99.90;;;;;;5059773;28;20056;-76
2021/05/11 16:15:43;;;;;;;33.50;27.92;;;14.60;99.90;;;;;;5036454;28;20064;-76
2021/05/11 16:18:10;;;;;;;33.72;26.75;;;14.70;99.90;;;;;;5030078;28;20056;-76
2021/05/11 16:20:37;;;;;;;34.90;27.52;;;14.70;99.90;;;;;;5049428;28;20135;-76
2021/05/11 16:23:06;;;;;;;36.38;27.95;;;14.70;99.90;;;;;;5030669;28;20053;-76
2021/05/11 16:25:34;;;;;;;38.85;29.40;;;14.70;99.90;;;;;;5029463;28;20508;-77
2021/05/11 16:28:05;;;;;;;33.83;27.27;;;14.80;99.90;;;;;;5030868;28;20155;-76
2021/05/11 16:30:33;;;;;;;34.65;28.75;;;14.80;99.90;;;;;;5050369;28;20048;-76
2021/05/11 16:33:00;;;;;;;35.33;28.38;;;14.70;99.90;;;;;;5032612;28;20087;-76
2021/05/11 16:35:27;;;;;;;40.38;30.80;;;14.70;99.90;;;;;;5048702;28;20647;-74
2021/05/11 16:37:54;;;;;;;37.30;28.98;;;14.70;99.90;;;;;;5039640;28;20143;-73
2021/05/11 16:40:21;;;;;;;42.40;32.40;;;14.70;99.90;;;;;;5011577;28;20182;-74
2021/05/11 16:42:50;;;;;;;38.17;31.65;;;14.60;99.90;;;;;;5059822;28;20387;-73
2021/05/11 16:45:18;;;;;;;41.17;32.30;;;14.60;99.90;;;;;;5043829;28;20055;-73
2021/05/11 16:47:54;;;;;;;37.63;30.95;;;14.60;99.90;;;;;;5030047;28;20037;-74